Milligan, Nebraska
Current Conditions -  °F | °C
As of 2:15 AM on Thursday 29 Jan 2015 (Local Time) from KHJH Reporting Station
Overcast Overcast  
Wind Chill: 28°   Ceiling: 2100
Heat Index: 39°   Visibility: 10mi
Dew Point: 29°   Wind: 24mph
Humidity: 68%   Direction: 330°NNW
Pressure: 30.17"   Gusts: 40mph
Location:  40.5°N, 97.39°W
Report Text: KHJH 290815Z AUTO 33021G35KT 10SM OVC021 04/M01 A3017 RMK AO2 T00401015
Loading
Personal Weather Stations






























Interactive Weather Map New forecast layout! Learn more

10-Day Weather Forecast

Advertisements
Track Severe Weather on mobile